createdAt,value
2019-05-03T00:01:52.784Z,99243.27
2019-05-03T00:06:57.289Z,99249.59
2019-05-03T00:12:01.955Z,99256.16
2019-05-03T00:17:07.511Z,99255.19
2019-05-03T00:22:12.383Z,99250.05
2019-05-03T00:27:16.999Z,99259.77
2019-05-03T00:32:23.088Z,99263.19
2019-05-03T00:37:29.084Z,99268.55
2019-05-03T00:42:33.487Z,99276.59
2019-05-03T00:47:37.874Z,99277.06
2019-05-03T00:52:42.409Z,99278.64
2019-05-03T00:57:46.702Z,99278.00
2019-05-03T01:02:51.756Z,99274.88
2019-05-03T01:07:56.575Z,99280.98
2019-05-03T01:13:01.655Z,99275.77
2019-05-03T01:18:07.792Z,99277.26
2019-05-03T01:23:12.474Z,99271.25
2019-05-03T01:28:17.912Z,99267.43
2019-05-03T01:33:22.719Z,99259.84
2019-05-03T01:38:27.224Z,99258.61
2019-05-03T01:43:31.895Z,99251.98
2019-05-03T01:48:37.971Z,99260.19
2019-05-03T01:53:42.345Z,99251.25
2019-05-03T01:58:46.745Z,99260.84
2019-05-03T02:04:09.250Z,99266.55
2019-05-03T02:09:44.198Z,99269.75
2019-05-03T02:14:48.549Z,99266.83
2019-05-03T02:19:52.922Z,99262.73
2019-05-03T02:24:57.375Z,99270.98
2019-05-03T02:30:03.094Z,99271.25
2019-05-03T02:35:08.979Z,99268.91
2019-05-03T02:40:13.953Z,99274.41
2019-05-03T02:45:20.224Z,99288.81
2019-05-03T02:50:26.033Z,99297.80
2019-05-03T02:55:30.519Z,99301.27
2019-05-03T03:01:00.405Z,99299.37
2019-05-03T03:06:07.008Z,99304.82
2019-05-03T03:11:11.550Z,99303.34
2019-05-03T03:16:20.492Z,99311.34
2019-05-03T03:21:26.040Z,99310.50
2019-05-03T03:26:39.331Z,99319.19
2019-05-03T03:31:58.538Z,99314.56
2019-05-03T03:37:06.467Z,99323.52
2019-05-03T03:42:10.395Z,99327.67
2019-05-03T03:47:16.603Z,99341.34
2019-05-03T03:52:25.306Z,99350.56
2019-05-03T03:57:29.354Z,99352.31
2019-05-03T04:02:35.466Z,99353.55
2019-05-03T04:07:40.059Z,99379.92
2019-05-03T04:12:45.837Z,99381.99
2019-05-03T04:17:51.891Z,99399.03
2019-05-03T04:22:56.432Z,99409.48
2019-05-03T04:28:00.844Z,99415.42
2019-05-03T04:33:06.164Z,99425.13
2019-05-03T04:38:11.776Z,99433.72
2019-05-03T04:43:16.691Z,99440.09
2019-05-03T04:48:21.153Z,99453.27
2019-05-03T04:53:26.099Z,99456.76
2019-05-03T04:58:30.501Z,99461.52
2019-05-03T05:03:36.201Z,99463.95
2019-05-03T05:08:40.850Z,99475.55
2019-05-03T05:13:45.717Z,99483.88
2019-05-03T05:18:51.970Z,99490.89
2019-05-03T05:23:58.032Z,99498.09
2019-05-03T05:29:14.616Z,99498.75
2019-05-03T05:34:19.329Z,99499.52
2019-05-03T05:39:24.464Z,99513.74
2019-05-03T05:44:29.037Z,99518.23
2019-05-03T05:49:40.931Z,99520.42
2019-05-03T05:54:46.938Z,99525.77
2019-05-03T05:59:59.937Z,99520.22
2019-05-03T06:05:06.131Z,99520.87
2019-05-03T06:10:18.488Z,99535.80
2019-05-03T06:15:42.400Z,99542.53
2019-05-03T06:21:04.626Z,99552.91
2019-05-03T06:26:15.649Z,99563.83
2019-05-03T06:31:27.787Z,99564.55
2019-05-03T06:36:32.168Z,99564.17
2019-05-03T06:41:37.656Z,99571.08
2019-05-03T06:46:46.401Z,99574.90
2019-05-03T06:51:51.007Z,99573.73
2019-05-03T06:56:55.607Z,99577.30
2019-05-03T07:02:07.889Z,99585.06
2019-05-03T07:07:16.453Z,99584.24
2019-05-03T07:12:20.834Z,99590.76
2019-05-03T07:17:25.264Z,99587.02
2019-05-03T07:22:29.614Z,99596.46
2019-05-03T07:27:34.956Z,99609.19
2019-05-03T07:32:41.113Z,99611.41
2019-05-03T07:37:45.558Z,99607.94
2019-05-03T07:42:49.966Z,99599.94
2019-05-03T07:47:55.816Z,99613.48
2019-05-03T07:53:01.420Z,99609.91
2019-05-03T07:58:10.425Z,99615.73
2019-05-03T08:03:15.507Z,99610.20
2019-05-03T08:08:19.985Z,99625.19
2019-05-03T08:13:25.289Z,99626.52
2019-05-03T08:18:29.972Z,99623.70
2019-05-03T08:23:35.256Z,99634.09
2019-05-03T08:28:41.099Z,99634.20
2019-05-03T08:33:49.790Z,99637.82
2019-05-03T08:38:56.304Z,99640.58
2019-05-03T08:44:00.405Z,99644.27
2019-05-03T08:49:05.287Z,99644.10
2019-05-03T08:54:09.748Z,99654.53
2019-05-03T08:59:26.768Z,99650.78
2019-05-03T09:04:33.518Z,99652.69
2019-05-03T09:09:27.908Z,99659.69
2019-05-03T09:14:48.476Z,99660.23
2019-05-03T09:19:54.733Z,99660.84
2019-05-03T09:24:58.711Z,99656.61
2019-05-03T09:30:05.069Z,99649.56
2019-05-03T09:35:12.391Z,99660.30
2019-05-03T09:40:16.849Z,99655.66
2019-05-03T09:45:21.287Z,99662.06
2019-05-03T09:50:25.823Z,99656.22
2019-05-03T09:55:40.968Z,99651.11
2019-05-03T10:00:45.942Z,99650.16
2019-05-03T10:05:50.309Z,99651.23
2019-05-03T10:11:15.539Z,99645.05
2019-05-03T10:16:20.484Z,99646.33
2019-05-03T10:21:26.541Z,99645.44
2019-05-03T10:26:30.888Z,99648.47
2019-05-03T10:31:54.569Z,99638.63
2019-05-03T10:36:59.089Z,99639.38
2019-05-03T10:42:04.771Z,99643.39
2019-05-03T10:47:09.360Z,99650.53
2019-05-03T10:52:15.039Z,99642.23
2019-05-03T10:57:24.821Z,99638.62
2019-05-03T11:02:30.946Z,99632.27
2019-05-03T11:07:35.316Z,99637.16
2019-05-03T11:12:39.678Z,99641.44
2019-05-03T11:17:45.486Z,99647.86
2019-05-03T11:22:50.009Z,99641.38
2019-05-03T11:27:56.211Z,99652.29
2019-05-03T11:33:02.234Z,99647.21
2019-05-03T11:38:15.522Z,99644.95
2019-05-03T11:43:21.995Z,99650.95
2019-05-03T11:48:26.625Z,99644.50
2019-05-03T11:53:31.081Z,99637.91
2019-05-03T11:58:35.438Z,99645.22
2019-05-03T12:03:41.448Z,99641.88
2019-05-03T12:08:45.781Z,99641.70
2019-05-03T12:14:02.389Z,99649.87
2019-05-03T12:19:13.256Z,99640.20
2019-05-03T12:24:07.214Z,99639.22
2019-05-03T12:29:11.982Z,99646.30
2019-05-03T12:34:16.382Z,99636.90
2019-05-03T12:39:26.748Z,99628.28
2019-05-03T12:44:26.969Z,99623.46
2019-05-03T12:49:31.327Z,99620.16
2019-05-03T12:54:36.649Z,99623.92
2019-05-03T12:59:51.249Z,99615.95
2019-05-03T13:04:55.620Z,99607.65
2019-05-03T13:10:00.017Z,99609.78
2019-05-03T13:15:08.498Z,99605.80
2019-05-03T13:20:14.996Z,99599.29
2019-05-03T13:25:19.402Z,99594.22
2019-05-03T13:30:25.068Z,99592.78
2019-05-03T13:35:29.780Z,99594.64
2019-05-03T13:40:35.938Z,99586.77
2019-05-03T13:45:40.525Z,99584.53
2019-05-03T13:50:44.887Z,99577.69
2019-05-03T13:55:49.250Z,99577.37
2019-05-03T14:00:54.966Z,99570.69
2019-05-03T14:06:00.639Z,99566.83
2019-05-03T14:11:05.491Z,99570.35
2019-05-03T14:16:10.898Z,99567.09
2019-05-03T14:21:17.048Z,99569.16
2019-05-03T14:26:21.511Z,99565.98
2019-05-03T14:31:25.863Z,99559.63
2019-05-03T14:36:30.207Z,99569.52
2019-05-03T14:41:34.614Z,99569.94
2019-05-03T14:46:39.062Z,99568.42
2019-05-03T14:51:45.408Z,99564.13
2019-05-03T14:56:51.129Z,99563.33
2019-05-03T15:01:57.120Z,99558.01
2019-05-03T15:07:01.467Z,99560.25
2019-05-03T15:12:06.015Z,99555.02
2019-05-03T15:17:10.426Z,99552.86
2019-05-03T15:22:14.862Z,99547.03
2019-05-03T15:27:20.529Z,99548.00
2019-05-03T15:32:24.916Z,99555.25
2019-05-03T15:37:29.321Z,99555.28
2019-05-03T15:42:34.493Z,99557.07
2019-05-03T15:47:42.905Z,99559.91
2019-05-03T15:52:47.259Z,99561.13
2019-05-03T15:57:51.640Z,99558.15
2019-05-03T16:03:07.488Z,99560.45
2019-05-03T16:08:02.126Z,99550.97
2019-05-03T16:13:06.883Z,99549.15
2019-05-03T16:18:11.262Z,99548.30
2019-05-03T16:23:15.721Z,99552.66
2019-05-03T16:28:24.905Z,99553.63
2019-05-03T16:33:29.357Z,99542.94
2019-05-03T16:38:35.430Z,99530.59
2019-05-03T16:43:40.006Z,99527.02
2019-05-03T16:48:44.911Z,99533.16
2019-05-03T16:53:49.391Z,99525.52
2019-05-03T16:58:54.997Z,99540.30
2019-05-03T17:04:01.125Z,99540.30
2019-05-03T17:09:10.940Z,99545.66
2019-05-03T17:14:16.937Z,99546.52
2019-05-03T17:19:21.291Z,99542.05
2019-05-03T17:24:25.832Z,99540.98
2019-05-03T17:29:30.208Z,99541.09
2019-05-03T17:34:34.808Z,99542.45
2019-05-03T17:39:57.365Z,99542.23
2019-05-03T17:45:01.994Z,99542.70
2019-05-03T17:50:07.179Z,99541.00
2019-05-03T17:55:21.953Z,99542.31
2019-05-03T18:00:30.711Z,99544.31
2019-05-03T18:05:44.823Z,99541.98
2019-05-03T18:10:55.085Z,99547.48
2019-05-03T18:15:59.485Z,99545.48
2019-05-03T18:21:04.784Z,99548.78
2019-05-03T18:26:09.409Z,99552.32
2019-05-03T18:31:14.634Z,99558.73
2019-05-03T18:36:19.073Z,99560.38
2019-05-03T18:41:25.241Z,99561.69
2019-05-03T18:46:31.125Z,99563.56
2019-05-03T18:51:36.120Z,99568.16
2019-05-03T18:56:40.502Z,99564.92
2019-05-03T19:01:45.206Z,99571.22
2019-05-03T19:07:01.999Z,99577.16
2019-05-03T19:11:58.620Z,99581.23
2019-05-03T19:17:07.339Z,99578.61
2019-05-03T19:22:11.859Z,99584.78
2019-05-03T19:27:16.236Z,99576.55
2019-05-03T19:32:20.617Z,99576.55
2019-05-03T19:37:25.340Z,99582.93
2019-05-03T19:42:29.787Z,99578.05
2019-05-03T19:47:35.323Z,99581.46
2019-05-03T19:52:57.379Z,99574.42
2019-05-03T19:58:01.765Z,99568.55
2019-05-03T20:03:11.280Z,99565.59
2019-05-03T20:08:24.657Z,99566.23
2019-05-03T20:13:34.644Z,99564.14
2019-05-03T20:18:35.660Z,99565.33
2019-05-03T20:23:40.773Z,99566.41
2019-05-03T20:28:45.290Z,99564.17
2019-05-03T20:33:49.695Z,99562.09
2019-05-03T20:38:55.034Z,99563.14
2019-05-03T20:44:05.359Z,99572.91
2019-05-03T20:49:12.620Z,99570.05
2019-05-03T20:54:16.987Z,99575.47
2019-05-03T20:59:21.346Z,99563.45
2019-05-03T21:04:25.734Z,99566.74
2019-05-03T21:09:30.102Z,99567.93
2019-05-03T21:14:35.066Z,99560.36
2019-05-03T21:19:41.257Z,99548.80
2019-05-03T21:24:47.239Z,99555.62
2019-05-03T21:29:54.837Z,99548.28
2019-05-03T21:34:58.312Z,99568.82
2019-05-03T21:40:02.665Z,99566.66
2019-05-03T21:45:08.147Z,99558.19
2019-05-03T21:50:14.734Z,99555.80
2019-05-03T21:55:19.111Z,99564.33
2019-05-03T22:00:25.422Z,99561.75
2019-05-03T22:05:33.062Z,99558.76
2019-05-03T22:10:37.507Z,99559.56
2019-05-03T22:15:43.510Z,99552.45
2019-05-03T22:20:50.634Z,99550.94
2019-05-03T22:25:56.916Z,99551.81
2019-05-03T22:31:01.219Z,99547.17
2019-05-03T22:36:08.824Z,99539.52
2019-05-03T22:41:12.526Z,99542.12
2019-05-03T22:46:18.791Z,99537.35
2019-05-03T22:51:24.444Z,99533.00
2019-05-03T22:56:29.022Z,99518.81
2019-05-03T23:01:35.250Z,99509.13
2019-05-03T23:06:39.466Z,99511.52
2019-05-03T23:11:44.743Z,99502.25
2019-05-03T23:16:49.413Z,99502.88
2019-05-03T23:21:55.502Z,99502.36
2019-05-03T23:27:00.042Z,99489.34
2019-05-03T23:32:04.824Z,99488.33
2019-05-03T23:37:09.356Z,99486.03
2019-05-03T23:42:15.503Z,99477.73
2019-05-03T23:47:25.221Z,99482.27
2019-05-03T23:52:32.410Z,99471.80
2019-05-03T23:57:36.754Z,99473.16
